Time;durP1;ratioP1;P1;durP2;ratioP2;P2;SDS_P1;SDS_P2;PMS_P1;PMS_P2;Temp;Humidity;BMP_temperature;BMP_pressure;BME280_temperature;BME280_humidity;BME280_pressure;Samples;Min_cycle;Max_cycle;Signal;HPM_P1;HPM_P2
2021/03/02 00:02:17;;;;;;;1.63;1.15;;;;;;;6.11;65.43;101953.81;5054807;28;20398;-74
2021/03/02 00:04:51;;;;;;;2.08;1.25;;;;;;;6.05;65.14;101966.28;5056527;28;20020;-74
2021/03/02 00:07:27;;;;;;;1.92;1.23;;;;;;;5.93;66.20;101928.16;5055505;28;20127;-74
2021/03/02 00:09:53;;;;;;;2.00;1.30;;;;;;;6.12;65.84;101965.59;5055065;28;20086;-73
2021/03/02 00:12:27;;;;;;;2.05;1.30;;;;;;;6.35;64.31;101955.13;5075048;28;20401;-74
2021/03/02 00:14:53;;;;;;;2.25;1.52;;;;;;;6.37;64.27;101963.59;5072321;28;20413;-74
2021/03/02 00:17:47;;;;;;;2.13;1.42;;;;;;;6.06;66.41;101962.09;5071947;28;20016;-73
2021/03/02 00:20:16;;;;;;;3.25;1.60;;;;;;;6.16;66.06;101961.44;5055533;28;20043;-74
2021/03/02 00:22:58;;;;;;;2.15;1.48;;;;;;;6.10;66.37;101959.66;5073276;28;20052;-74
2021/03/02 00:25:53;;;;;;;;;;;;;;;6.12;65.04;101957.16;5055667;28;20090;-74
2021/03/02 00:28:29;;;;;;;3.17;2.38;;;;;;;6.11;64.89;101961.38;5073110;28;20351;-74
2021/03/02 00:30:57;;;;;;;2.35;1.45;;;;;;;6.18;65.63;101957.28;5073273;28;20025;-74
2021/03/02 00:33:33;;;;;;;3.45;1.80;;;;;;;5.98;66.38;101959.38;5055208;28;20076;-74
2021/03/02 00:36:01;;;;;;;3.55;1.90;;;;;;;6.08;65.61;101940.28;5071635;28;20016;-74
2021/03/02 00:38:31;;;;;;;2.67;1.80;;;;;;;5.98;64.60;101920.69;5072540;28;20028;-74
2021/03/02 00:40:56;;;;;;;3.15;2.17;;;;;;;6.10;65.72;101947.03;5072907;28;20045;-74
2021/03/02 00:43:24;;;;;;;4.57;2.90;;;;;;;5.98;65.66;101946.75;5055053;28;20082;-74
2021/03/02 00:45:50;;;;;;;5.20;3.03;;;;;;;5.99;64.57;101930.81;5055197;28;20021;-74
2021/03/02 00:48:38;;;;;;;8.95;4.60;;;;;;;5.95;64.22;101939.13;5072303;28;20050;-74
2021/03/02 00:51:12;;;;;;;5.05;2.95;;;;;;;6.03;65.53;101931.72;5073107;28;20032;-74
2021/03/02 00:53:45;;;;;;;3.75;2.55;;;;;;;6.00;65.06;101921.56;5054940;28;20795;-74
2021/03/02 00:56:14;;;;;;;4.78;2.30;;;;;;;6.04;64.26;101920.81;5071077;28;20033;-75
2021/03/02 00:58:41;;;;;;;3.08;2.00;;;;;;;5.93;64.04;101924.75;5071571;28;20490;-74
2021/03/02 01:01:19;;;;;;;3.70;2.22;;;;;;;6.03;64.75;101927.53;5053846;28;20029;-74
2021/03/02 01:03:49;;;;;;;3.60;2.00;;;;;;;5.96;64.09;101920.63;5072905;28;20505;-74
2021/03/02 01:06:20;;;;;;;2.80;1.92;;;;;;;5.96;64.69;101927.38;5053926;28;20020;-74
2021/03/02 01:08:49;;;;;;;3.65;1.92;;;;;;;6.11;63.89;101923.50;5054047;28;20033;-74
2021/03/02 01:11:27;;;;;;;6.32;2.13;;;;;;;6.05;64.38;101923.38;5055478;28;20028;-74
2021/03/02 01:13:53;;;;;;;4.32;2.67;;;;;;;6.13;63.22;101915.97;5073465;28;20513;-74
2021/03/02 01:16:19;;;;;;;13.25;5.68;;;;;;;5.99;64.15;101897.13;5054030;28;20032;-74
2021/03/02 01:18:45;;;;;;;3.45;1.80;;;;;;;5.97;64.35;101918.97;5072147;28;20390;-74
2021/03/02 01:21:23;;;;;;;2.78;1.75;;;;;;;5.81;64.20;101892.50;5072274;28;20020;-74
2021/03/02 01:23:48;;;;;;;2.80;1.77;;;;;;;6.06;63.97;101906.56;5071969;28;20085;-74
2021/03/02 01:26:14;;;;;;;2.75;1.60;;;;;;;5.90;64.75;101917.13;5073760;28;20111;-74
2021/03/02 01:28:52;;;;;;;1.80;1.20;;;;;;;5.92;64.71;101913.81;5071749;28;20174;-73
2021/03/02 01:31:18;;;;;;;2.80;1.27;;;;;;;5.84;64.33;101917.84;5054122;28;20036;-75
2021/03/02 01:33:58;;;;;;;1.85;1.40;;;;;;;5.81;63.32;101917.75;5054333;28;20029;-73
2021/03/02 01:36:42;;;;;;;2.28;1.35;;;;;;;5.84;63.86;101924.56;5072152;28;20028;-74
2021/03/02 01:39:26;;;;;;;2.13;1.30;;;;;;;5.77;64.16;101917.63;5071821;28;20028;-74
2021/03/02 01:42:03;;;;;;;2.67;1.30;;;;;;;5.77;64.38;101923.53;5054102;28;20028;-74
2021/03/02 01:44:40;;;;;;;2.13;1.40;;;;;;;5.60;64.21;101912.22;5054068;28;20505;-75
2021/03/02 01:47:27;;;;;;;2.53;1.60;;;;;;;5.64;65.18;101930.78;5071878;28;20020;-74
2021/03/02 01:49:55;;;;;;;2.70;1.50;;;;;;;5.79;62.98;101923.56;5071811;28;20034;-74
2021/03/02 01:52:25;;;;;;;2.35;1.30;;;;;;;5.81;63.79;101924.44;5053886;28;20536;-74
2021/03/02 01:54:53;;;;;;;3.05;1.70;;;;;;;5.68;64.61;101922.47;5053965;28;20123;-74
2021/03/02 01:57:28;;;;;;;2.10;1.50;;;;;;;5.61;63.33;101925.66;5053970;28;20020;-73
2021/03/02 02:00:10;;;;;;;3.00;1.75;;;;;;;5.78;64.49;101930.31;5071616;28;20021;-74
2021/03/02 02:03:06;;;;;;;3.42;1.75;;;;;;;5.71;63.61;101918.34;5071655;28;20031;-74
2021/03/02 02:05:37;;;;;;;2.42;1.50;;;;;;;5.61;62.97;101920.63;5042616;28;20115;-74
2021/03/02 02:08:07;;;;;;;2.42;1.80;;;;;;;5.20;63.50;101879.28;5053726;28;20028;-74
2021/03/02 02:11:07;;;;;;;2.85;1.75;;;;;;;5.42;63.25;101924.38;5053471;28;20032;-74
2021/03/02 02:13:47;;;;;;;2.33;1.70;;;;;;;5.61;63.69;101923.13;5038956;28;20040;-74
2021/03/02 02:16:24;;;;;;;2.80;1.60;;;;;;;5.58;63.08;101930.66;5071320;28;20032;-74
2021/03/02 02:18:53;;;;;;;2.53;1.63;;;;;;;5.59;63.97;101927.28;5053700;28;20146;-74
2021/03/02 02:21:56;;;;;;;2.60;1.80;;;;;;;5.55;64.30;101933.09;5071287;28;20103;-74
2021/03/02 02:25:09;;;;;;;3.08;1.70;;;;;;;5.19;65.65;101933.88;5053501;28;20032;-73
2021/03/02 02:27:55;;;;;;;3.13;2.10;;;;;;;5.20;64.20;101928.06;5053237;28;20032;-73
2021/03/02 02:30:23;;;;;;;2.65;1.63;;;;;;;5.36;64.74;101935.97;5071164;28;20115;-73
2021/03/02 02:32:51;;;;;;;2.88;2.00;;;;;;;5.20;65.65;101933.09;5070953;28;20174;-74
2021/03/02 02:35:23;;;;;;;4.40;2.45;;;;;;;5.08;65.26;101917.66;5053165;28;20631;-74
2021/03/02 02:37:55;;;;;;;4.43;2.60;;;;;;;5.19;65.36;101928.00;5071201;28;20055;-73
2021/03/02 02:40:30;;;;;;;4.70;2.72;;;;;;;5.36;64.76;101936.84;5055146;28;20444;-74
2021/03/02 02:43:08;;;;;;;4.32;2.95;;;;;;;5.27;65.81;101936.59;5075270;28;20166;-73
2021/03/02 02:45:39;;;;;;;4.43;2.97;;;;;;;5.11;66.24;101942.91;5075244;28;20024;-74
2021/03/02 02:48:17;;;;;;;3.70;2.13;;;;;;;4.86;65.31;101899.41;5075238;28;20047;-73
2021/03/02 02:50:45;;;;;;;4.80;3.15;;;;;;;4.93;67.00;101942.44;5075802;28;20024;-74
2021/03/02 02:53:39;;;;;;;4.72;3.53;;;;;;;4.95;66.95;101952.59;5075184;28;20043;-74
2021/03/02 02:56:20;;;;;;;7.57;4.28;;;;;;;4.61;67.85;101937.34;5057228;28;20032;-74
2021/03/02 02:59:14;;;;;;;7.45;4.28;;;;;;;4.76;68.07;101952.88;5074953;28;20046;-74
2021/03/02 03:02:00;;;;;;;8.15;4.60;;;;;;;4.71;67.00;101957.81;5074806;28;20040;-73
2021/03/02 03:04:30;;;;;;;7.40;4.13;;;;;;;4.95;66.35;101960.97;5056841;28;20032;-74
2021/03/02 03:07:00;;;;;;;7.53;4.05;;;;;;;5.03;66.99;101962.03;5074798;28;20027;-74
2021/03/02 03:09:26;;;;;;;6.55;3.67;;;;;;;4.85;67.50;101964.06;5074545;28;20032;-73
2021/03/02 03:11:59;;;;;;;5.65;3.40;;;;;;;4.61;67.29;101972.63;5056655;28;20024;-74
2021/03/02 03:14:28;;;;;;;5.95;3.65;;;;;;;4.81;68.65;101972.38;5056702;28;20028;-74
2021/03/02 03:16:57;;;;;;;6.10;3.63;;;;;;;4.68;67.25;101969.44;5056791;28;20052;-73
2021/03/02 03:19:30;;;;;;;6.03;3.85;;;;;;;4.87;68.18;101967.47;5056352;28;20025;-73
2021/03/02 03:22:10;;;;;;;6.40;3.88;;;;;;;4.72;68.74;101968.72;5074553;28;20489;-73
2021/03/02 03:24:36;;;;;;;5.43;3.90;;;;;;;4.53;68.59;101981.63;5056915;28;20148;-72
2021/03/02 03:27:03;;;;;;;5.40;3.83;;;;;;;4.77;67.15;101973.09;5074405;28;20029;-72
2021/03/02 03:29:38;;;;;;;5.88;3.90;;;;;;;4.63;67.26;101976.91;5056150;28;20032;-72
2021/03/02 03:32:06;;;;;;;8.30;4.28;;;;;;;4.55;68.24;101973.31;5072759;28;20045;-73
2021/03/02 03:34:35;;;;;;;6.32;4.30;;;;;;;4.71;67.72;101959.47;5056038;28;20094;-73
2021/03/02 03:37:07;;;;;;;7.47;4.28;;;;;;;4.63;67.68;101984.44;5074031;28;20029;-74
2021/03/02 03:39:33;;;;;;;13.52;7.38;;;;;;;4.62;67.93;101974.31;5056549;28;20477;-73
2021/03/02 03:42:05;;;;;;;17.30;9.30;;;;;;;4.49;69.42;101980.69;5073983;28;20059;-73
2021/03/02 03:44:33;;;;;;;16.27;8.95;;;;;;;4.36;68.63;101973.56;5056136;28;20078;-73
2021/03/02 03:47:04;;;;;;;21.83;11.32;;;;;;;4.56;68.54;101982.56;5056295;28;20028;-73
2021/03/02 03:49:32;;;;;;;16.30;8.40;;;;;;;4.76;68.04;101953.75;5073778;28;20037;-74
2021/03/02 03:52:04;;;;;;;25.58;14.20;;;;;;;4.80;68.98;101974.81;5074005;28;20107;-73
2021/03/02 03:54:32;;;;;;;12.10;7.47;;;;;;;4.65;67.00;101972.75;5074303;28;20070;-74
2021/03/02 03:57:09;;;;;;;12.15;7.35;;;;;;;4.58;69.35;101980.06;5073759;28;20036;-74
2021/03/02 03:59:44;;;;;;;21.73;14.00;;;;;;;4.58;68.73;101942.28;5073710;28;20025;-74
2021/03/02 04:02:11;;;;;;;24.00;16.48;;;;;;;4.42;69.76;101975.44;5056046;28;20052;-74
2021/03/02 04:04:46;;;;;;;20.60;13.25;;;;;;;4.39;70.20;101976.19;5073566;28;20478;-74
2021/03/02 04:07:12;;;;;;;22.27;12.80;;;;;;;4.35;69.51;101977.78;5055911;28;20032;-74
2021/03/02 04:09:53;;;;;;;23.20;14.65;;;;;;;4.38;70.18;101969.44;5056385;28;20451;-74
2021/03/02 04:12:19;;;;;;;29.05;16.73;;;;;;;4.23;70.27;101982.44;5055998;28;20020;-74
2021/03/02 04:14:46;;;;;;;32.15;18.40;;;;;;;4.33;69.56;101968.44;5055374;28;20413;-73
2021/03/02 04:17:24;;;;;;;36.28;19.85;;;;;;;4.33;70.36;101960.91;5055654;28;20079;-73
2021/03/02 04:19:53;;;;;;;38.65;22.17;;;;;;;4.39;70.33;101971.16;5055535;28;20482;-73
2021/03/02 04:22:19;;;;;;;39.88;24.80;;;;;;;4.67;70.18;101975.31;5055521;28;20056;-74
2021/03/02 04:24:46;;;;;;;73.32;38.75;;;;;;;4.19;70.96;101982.28;5073885;28;20036;-73
2021/03/02 04:27:15;;;;;;;57.92;32.03;;;;;;;4.37;71.07;101981.19;5073028;28;20036;-73
2021/03/02 04:29:48;;;;;;;32.55;17.23;;;;;;;4.48;69.78;101965.53;5055195;28;20037;-74
2021/03/02 04:32:14;;;;;;;20.90;11.95;;;;;;;4.71;69.90;101957.81;5068465;28;20585;-74
2021/03/02 04:35:11;;;;;;;25.95;13.65;;;;;;;4.89;68.97;101959.97;5054973;28;20127;-74
2021/03/02 04:37:43;;;;;;;34.42;19.73;;;;;;;4.70;70.17;101961.13;5055133;28;20866;-73
2021/03/02 04:40:15;;;;;;;;;;;;;;;4.55;70.75;101963.22;5073417;28;20016;-74
2021/03/02 04:42:44;;;;;;;35.22;19.50;;;;;;;4.93;68.73;101965.13;5055101;28;19917;-73
2021/03/02 04:45:27;;;;;;;37.03;22.30;;;;;;;4.75;70.17;101962.13;5055018;28;20032;-73
2021/03/02 04:47:57;;;;;;;52.38;29.33;;;;;;;4.89;69.68;101965.84;5054721;28;20028;-74
2021/03/02 04:50:24;;;;;;;39.03;23.27;;;;;;;4.90;70.58;101967.56;5072363;28;20106;-72
2021/03/02 04:52:57;;;;;;;42.60;24.40;;;;;;;4.74;70.02;101967.97;5071546;28;20027;-74
2021/03/02 04:55:25;;;;;;;34.60;18.55;;;;;;;4.88;69.90;101985.97;5071965;28;20036;-74
2021/03/02 04:57:58;;;;;;;24.88;13.98;;;;;;;5.29;73.95;101991.31;5054863;28;20036;-74
2021/03/02 05:00:24;;;;;;;32.47;13.55;;;;;;;4.81;74.21;101982.44;5072279;28;20029;-75
2021/03/02 05:03:03;;;;;;;14.77;8.55;;;;;;;4.71;69.53;101988.03;5054121;28;20549;-73
2021/03/02 05:05:30;;;;;;;17.20;8.57;;;;;;;4.76;69.12;101995.72;5053844;28;20040;-78
2021/03/02 05:08:12;;;;;;;19.48;10.15;;;;;;;4.67;70.06;101980.34;5072124;28;20516;-80
2021/03/02 05:10:39;;;;;;;18.48;9.75;;;;;;;4.84;68.96;101990.09;5092870;28;20028;-77
2021/03/02 05:13:06;;;;;;;25.13;15.18;;;;;;;4.47;70.79;101989.00;5074490;28;20127;-78
2021/03/02 05:15:38;;;;;;;29.90;18.30;;;;;;;4.36;71.23;101983.63;5074431;28;20024;-77
2021/03/02 05:18:44;;;;;;;50.35;31.77;;;;;;;4.48;70.46;101996.59;5074423;28;20110;-78
2021/03/02 05:21:15;;;;;;;55.35;31.92;;;;;;;4.59;71.38;102001.94;5073037;28;20035;-79
2021/03/02 05:23:59;;;;;;;51.63;29.80;;;;;;;4.64;70.12;101976.06;5073696;28;20554;-76
2021/03/02 05:26:28;;;;;;;49.53;28.67;;;;;;;4.81;70.44;102002.59;5074035;28;20130;-77
2021/03/02 05:29:06;;;;;;;46.42;29.52;;;;;;;4.61;70.31;101998.66;5072934;28;20028;-78
2021/03/02 05:31:38;;;;;;;43.65;29.80;;;;;;;4.78;69.63;101997.47;5077850;28;20028;-77
2021/03/02 05:34:05;;;;;;;;;;;;;;;5.16;68.71;102006.94;5074511;28;20086;-78
2021/03/02 05:37:06;;;;;;;51.35;32.05;;;;;;;5.11;68.40;102002.59;5073334;28;20009;-77
2021/03/02 05:39:32;;;;;;;48.83;29.52;;;;;;;6.39;76.33;101988.09;5074213;28;20504;-83
2021/03/02 05:42:12;;;;;;;61.38;39.05;;;;;;;5.39;67.55;101994.06;5073511;28;20051;-79
2021/03/02 05:44:38;;;;;;;65.05;40.05;;;;;;;5.20;68.42;102006.19;5072918;28;20504;-80
2021/03/02 05:47:11;;;;;;;62.58;36.40;;;;;;;5.33;68.13;102009.88;5093695;28;20028;-78
2021/03/02 05:49:40;;;;;;;53.88;34.78;;;;;;;5.30;68.51;101994.69;5077825;28;20016;-78
2021/03/02 05:52:06;;;;;;;47.60;30.42;;;;;;;5.38;67.97;101997.41;5078008;28;20031;-78
2021/03/02 05:54:33;;;;;;;48.45;32.88;;;;;;;5.37;67.78;101995.72;5076956;28;20028;-78
2021/03/02 05:57:25;;;;;;;50.38;32.60;;;;;;;5.50;68.62;102007.81;5094758;28;20101;-78
2021/03/02 05:59:51;;;;;;;44.42;29.80;;;;;;;5.59;66.94;102010.53;5076745;28;20039;-77
2021/03/02 06:06:17;;;;;;;21.10;12.98;;;;;;;5.47;67.20;102013.63;5092400;28;20038;-78
2021/03/02 06:08:44;;;;;;;21.35;12.25;;;;;;;5.75;66.46;102015.16;5074135;28;20032;-78
2021/03/02 06:11:43;;;;;;;20.45;11.73;;;;;;;5.90;66.69;102013.88;5092533;28;20528;-78
2021/03/02 06:14:46;;;;;;;19.00;11.88;;;;;;;5.82;66.00;102014.50;5092160;28;20032;-77
2021/03/02 06:20:33;;;;;;;17.47;9.63;;;;;;;6.04;64.21;102011.72;5092024;28;20488;-77
2021/03/02 06:26:25;;;;;;;8.93;5.93;;;;;;;5.93;63.66;102023.19;5092250;28;20185;-75
2021/03/02 06:32:12;;;;;;;14.40;7.85;;;;;;;5.94;64.69;102024.94;5092264;28;20063;-76
2021/03/02 06:38:00;;;;;;;21.77;13.67;;;;;;;6.32;64.89;102023.28;5092398;28;20085;-76
2021/03/02 06:40:46;;;;;;;25.50;15.93;;;;;;;6.50;64.54;102033.75;5091632;28;20273;-76
2021/03/02 06:43:31;;;;;;;15.40;8.68;;;;;;;5.92;65.13;102034.97;5074046;28;20512;-77
2021/03/02 06:46:10;;;;;;;25.67;16.05;;;;;;;5.91;66.00;102032.41;5074065;28;20437;-77
2021/03/02 06:48:56;;;;;;;14.52;9.85;;;;;;;6.08;66.21;102029.47;5094110;28;20093;-76
2021/03/02 06:51:46;;;;;;;9.10;6.05;;;;;;;5.91;66.65;102037.47;5073641;28;20120;-76
2021/03/02 06:54:16;;;;;;;9.48;6.03;;;;;;;5.90;66.32;102033.25;5092093;28;20465;-76
2021/03/02 07:00:04;;;;;;;25.37;14.07;;;;;;;5.97;66.60;102020.78;5091810;28;20039;-77
2021/03/02 07:02:44;;;;;;;14.57;8.70;;;;;;;5.96;67.38;102000.56;5091513;28;20031;-77
2021/03/02 07:08:31;;;;;;;12.18;6.95;;;;;;;6.20;68.16;102023.84;5092105;28;20055;-77
2021/03/02 07:11:22;;;;;;;14.77;10.10;;;;;;;6.28;67.38;102024.03;5091657;28;20028;-77
2021/03/02 07:14:33;;;;;;;11.55;7.30;;;;;;;6.33;66.53;102020.78;5073530;28;20028;-76
2021/03/02 07:17:14;;;;;;;15.75;7.00;;;;;;;6.52;64.88;102011.91;5073580;28;20029;-76
2021/03/02 07:19:41;;;;;;;14.75;9.52;;;;;;;6.54;65.18;102016.19;5073234;28;20102;-75
2021/03/02 07:22:53;;;;;;;23.80;15.18;;;;;;;6.38;65.40;102013.31;5073415;28;20024;-75
2021/03/02 07:25:55;;;;;;;15.93;9.45;;;;;;;6.42;65.80;102022.66;5091098;28;20126;-75
2021/03/02 07:28:43;;;;;;;;;;;;;;;6.63;64.22;102016.41;5095376;28;20549;-75
2021/03/02 07:31:21;;;;;;;9.13;5.93;;;;;;;6.72;64.99;102003.06;5094771;28;19912;-76
2021/03/02 07:34:09;;;;;;;13.63;7.88;;;;;;;6.95;64.61;102005.22;5094867;28;20048;-76
2021/03/02 07:36:44;;;;;;;11.38;7.22;;;;;;;7.01;64.73;101999.47;5095127;28;20032;-77
2021/03/02 07:39:14;;;;;;;18.27;12.32;;;;;;;6.84;66.09;102008.38;5094898;28;20489;-76
2021/03/02 07:42:24;;;;;;;10.23;6.88;;;;;;;6.86;66.22;102000.00;5094629;28;20031;-76
2021/03/02 07:48:24;;;;;;;8.25;5.55;;;;;;;7.15;63.93;102000.56;5094651;28;20058;-76
2021/03/02 07:54:16;;;;;;;11.37;7.50;;;;;;;7.01;63.81;101992.72;5095000;28;20519;-76
2021/03/02 07:57:21;;;;;;;9.90;6.70;;;;;;;7.19;64.35;102002.31;5076196;28;20115;-76
2021/03/02 08:00:42;;;;;;;10.73;4.85;;;;;;;7.03;64.87;101991.06;5076020;28;20036;-75
2021/03/02 08:03:44;;;;;;;7.57;5.25;;;;;;;7.19;64.58;101987.13;5094313;28;20600;-75
2021/03/02 08:06:33;;;;;;;8.88;5.10;;;;;;;7.28;64.61;101986.47;5075895;28;20038;-74
2021/03/02 08:09:28;;;;;;;32.15;18.45;;;;;;;7.32;63.45;101991.59;5094067;28;20032;-76
2021/03/02 08:12:48;;;;;;;10.05;6.30;;;;;;;7.27;62.16;101985.59;5079549;28;20036;-76
2021/03/02 08:15:38;;;;;;;9.60;6.43;;;;;;;7.55;62.62;101985.25;5094080;28;20028;-75
2021/03/02 08:18:28;;;;;;;7.47;5.30;;;;;;;7.65;61.94;101993.84;5093821;28;20024;-76
2021/03/02 08:24:15;;;;;;;13.25;7.43;;;;;;;7.64;60.13;101974.44;5094389;28;20428;-77
2021/03/02 08:30:06;;;;;;;7.50;4.60;;;;;;;7.84;59.72;101998.41;5093556;28;20063;-76
2021/03/02 08:32:31;;;;;;;10.48;7.32;;;;;;;8.90;56.86;101980.44;5093086;28;20051;-76
2021/03/02 08:38:28;;;;;;;10.45;7.95;;;;;;;8.31;56.47;101959.44;5092575;28;20043;-77
2021/03/02 08:44:20;;;;;;;28.27;14.65;;;;;;;8.78;56.03;101970.16;5093823;28;20043;-79
2021/03/02 08:47:22;;;;;;;26.25;14.77;;;;;;;8.62;56.44;101968.25;5075242;28;20034;-79
2021/03/02 08:50:36;;;;;;;8.88;6.80;;;;;;;8.66;56.03;101962.41;5093473;28;20562;-78
2021/03/02 08:56:25;;;;;;;8.63;6.43;;;;;;;8.62;55.82;101969.13;5093699;28;20051;-78
2021/03/02 09:02:12;;;;;;;10.60;6.95;;;;;;;8.41;56.65;101958.72;5093875;28;20082;-78
2021/03/02 09:08:07;;;;;;;8.98;6.78;;;;;;;8.10;57.40;101970.94;5093328;28;20034;-77
2021/03/02 09:10:37;;;;;;;9.00;7.05;;;;;;;7.88;58.37;101959.63;5092847;28;20410;-79
2021/03/02 09:16:37;;;;;;;14.88;9.90;;;;;;;8.36;56.67;101978.06;5093126;28;20638;-78
2021/03/02 09:19:25;;;;;;;14.60;8.75;;;;;;;8.69;56.45;101972.59;5074756;28;20040;-78
2021/03/02 09:22:24;;;;;;;15.60;9.50;;;;;;;8.47;57.06;101973.16;5074829;28;20019;-77
2021/03/02 09:28:00;;;;;;;9.45;7.07;;;;;;;8.35;56.42;101961.19;5092963;28;20036;-78
2021/03/02 09:30:59;;;;;;;19.88;9.88;;;;;;;8.33;56.76;101967.06;5093115;28;20020;-78
2021/03/02 09:33:24;;;;;;;15.63;10.88;;;;;;;8.55;56.29;101954.69;5074347;28;20040;-77
2021/03/02 09:36:09;;;;;;;14.80;9.52;;;;;;;8.70;56.38;101951.44;5096442;28;20229;-77
2021/03/02 09:41:57;;;;;;;15.13;9.97;;;;;;;9.40;55.68;101925.09;5092634;28;20097;-77
2021/03/02 09:45:12;;;;;;;13.07;8.88;;;;;;;9.40;54.22;101942.88;5092500;28;20103;-77
2021/03/02 09:48:09;;;;;;;16.92;9.88;;;;;;;8.86;54.82;101950.78;5092402;28;20585;-77
2021/03/02 09:51:30;;;;;;;13.07;8.50;;;;;;;9.10;55.61;101943.44;5073931;28;20493;-78
2021/03/02 09:54:16;;;;;;;19.95;11.38;;;;;;;9.50;54.08;101937.88;5074406;28;20573;-77
2021/03/02 09:56:57;;;;;;;9.90;6.70;;;;;;;9.40;53.78;101930.19;5074472;28;20032;-78
2021/03/02 09:59:25;;;;;;;11.05;7.10;;;;;;;9.31;54.16;101907.28;5074489;28;20118;-77
2021/03/02 10:01:52;;;;;;;11.80;6.85;;;;;;;10.11;52.74;101933.22;5092215;28;20497;-77
2021/03/02 10:04:18;;;;;;;8.75;6.20;;;;;;;9.86;52.71;101933.91;5073979;28;20024;-79
2021/03/02 10:06:45;;;;;;;10.40;6.78;;;;;;;9.46;53.52;101907.38;5074595;28;20501;-78
2021/03/02 10:09:27;;;;;;;8.43;5.78;;;;;;;9.96;53.99;101917.88;5074458;28;20032;-79
2021/03/02 10:12:10;;;;;;;;;;;;;;;9.55;54.07;101930.28;5075362;28;20028;-78
2021/03/02 10:14:44;;;;;;;8.85;5.82;;;;;;;9.53;54.83;101921.81;5077570;28;19947;-83
2021/03/02 10:17:34;;;;;;;11.50;6.80;;;;;;;9.18;56.17;101919.00;5075240;28;20032;-82
2021/03/02 10:20:14;;;;;;;8.93;5.60;;;;;;;9.44;55.86;101924.28;5092772;28;20038;-83
2021/03/02 10:26:02;;;;;;;8.40;5.93;;;;;;;9.09;55.58;101885.09;5092925;28;20591;-80
2021/03/02 10:29:15;;;;;;;20.10;12.40;;;;;;;9.15;55.77;101905.44;5074013;28;20111;-78
2021/03/02 10:31:50;;;;;;;15.32;9.07;;;;;;;9.53;54.24;101893.88;5074324;28;21612;-81
2021/03/02 10:35:08;;;;;;;14.45;11.27;;;;;;;8.95;55.13;101896.78;5091715;28;20040;-82
2021/03/02 10:37:34;;;;;;;17.08;13.07;;;;;;;9.28;54.26;101890.31;5091937;28;20102;-77
2021/03/02 10:40:20;;;;;;;9.82;7.38;;;;;;;9.07;54.72;101894.38;5092102;28;20138;-80
2021/03/02 10:43:14;;;;;;;10.63;6.85;;;;;;;9.58;55.73;101890.56;5074052;28;20489;-80
2021/03/02 10:45:52;;;;;;;13.15;7.22;;;;;;;9.57;57.94;101877.81;5074179;28;20039;-79
2021/03/02 10:51:39;;;;;;;9.15;6.30;;;;;;;9.57;57.24;101877.81;5092309;28;20515;-82
2021/03/02 10:54:25;;;;;;;14.05;8.70;;;;;;;9.77;56.72;101866.09;5073942;28;20035;-79
2021/03/02 11:00:28;;;;;;;16.38;9.93;;;;;;;9.55;54.12;101852.44;5091804;28;20036;-77
2021/03/02 11:02:53;;;;;;;13.57;8.88;;;;;;;10.18;52.79;101830.78;5095723;28;20027;-78
2021/03/02 11:05:44;;;;;;;13.82;9.00;;;;;;;10.07;52.96;101840.84;5095602;28;20028;-77
2021/03/02 11:09:00;;;;;;;20.73;13.57;;;;;;;10.18;53.10;101829.06;5095463;28;20119;-78
2021/03/02 11:11:39;;;;;;;31.05;19.02;;;;;;;10.16;53.77;101819.75;5077341;28;20035;-77
2021/03/02 11:14:25;;;;;;;11.23;7.68;;;;;;;11.95;47.80;101824.84;5077283;28;20094;-77
2021/03/02 11:20:12;;;;;;;12.53;8.40;;;;;;;10.95;51.15;101808.84;5095763;28;20043;-78
2021/03/02 11:23:21;;;;;;;13.75;9.57;;;;;;;12.71;47.21;101798.91;5095261;28;20259;-77
2021/03/02 11:25:47;;;;;;;21.48;12.77;;;;;;;12.25;45.00;101792.38;5077082;28;20036;-77
2021/03/02 11:28:13;;;;;;;25.08;14.48;;;;;;;12.78;46.01;101757.16;5076773;28;20035;-78
2021/03/02 11:30:52;;;;;;;20.13;12.88;;;;;;;12.25;46.98;101789.84;5095286;28;20035;-77
2021/03/02 11:33:18;;;;;;;17.10;9.80;;;;;;;11.84;47.29;101778.16;5073059;28;20052;-77
2021/03/02 11:36:28;;;;;;;14.50;8.85;;;;;;;11.20;45.94;101792.72;5074390;28;20040;-77
2021/03/02 11:38:54;;;;;;;9.55;7.22;;;;;;;11.43;45.81;101761.28;5074368;28;20032;-78
2021/03/02 11:42:06;;;;;;;11.70;8.02;;;;;;;11.17;46.88;101782.53;5074697;28;20024;-77
2021/03/02 11:47:54;;;;;;;11.88;8.20;;;;;;;11.29;46.92;101751.09;5074714;28;20042;-77
2021/03/02 11:50:34;;;;;;;17.95;9.25;;;;;;;11.75;46.09;101742.50;5073328;28;20013;-77
2021/03/02 11:53:14;;;;;;;12.40;8.90;;;;;;;11.33;47.28;101761.28;5073473;28;20070;-77
2021/03/02 11:56:15;;;;;;;11.35;7.22;;;;;;;10.67;48.92;101769.00;5073983;28;20037;-77
2021/03/02 12:02:02;;;;;;;10.23;6.57;;;;;;;10.43;48.04;101752.03;5074189;28;20086;-78
2021/03/02 12:04:33;;;;;;;7.63;5.65;;;;;;;10.95;45.44;101735.03;5073847;28;20021;-77
2021/03/02 12:07:11;;;;;;;10.10;6.78;;;;;;;11.79;44.21;101735.69;5073914;28;20021;-78
2021/03/02 12:09:49;;;;;;;9.43;6.88;;;;;;;11.40;45.74;101729.03;5074165;28;20470;-78
2021/03/02 12:12:30;;;;;;;11.88;7.35;;;;;;;11.85;44.89;101739.06;5073707;28;20024;-77
2021/03/02 12:15:24;;;;;;;10.45;7.85;;;;;;;11.35;46.81;101739.22;5073840;28;20032;-77
2021/03/02 12:17:49;;;;;;;8.88;6.68;;;;;;;10.93;47.03;101736.78;5075141;28;20039;-77
2021/03/02 12:20:36;;;;;;;10.07;6.30;;;;;;;12.66;42.87;101736.81;5076615;28;20029;-77
2021/03/02 12:23:39;;;;;;;9.02;6.20;;;;;;;13.31;42.70;101726.84;5072729;28;20425;-78
2021/03/02 12:26:04;;;;;;;10.88;6.47;;;;;;;13.28;41.14;101705.63;5073607;28;20539;-77
2021/03/02 12:32:20;;;;;;;7.20;5.72;;;;;;;13.31;41.18;101719.19;5073688;28;20065;-77
2021/03/02 12:38:34;;;;;;;9.05;6.35;;;;;;;13.17;41.51;101704.91;5093861;28;20040;-78
2021/03/02 12:41:03;;;;;;;8.80;6.00;;;;;;;13.88;41.02;101702.31;5075816;28;20538;-77
2021/03/02 12:43:47;;;;;;;9.13;5.65;;;;;;;12.59;42.36;101695.22;5093664;28;20508;-77
2021/03/02 12:46:33;;;;;;;7.35;5.90;;;;;;;11.92;44.12;101696.56;5075454;28;20020;-77
2021/03/02 12:52:21;;;;;;;8.38;6.25;;;;;;;12.46;43.34;101685.13;5093929;28;20582;-78
2021/03/02 12:55:27;;;;;;;9.32;6.57;;;;;;;13.96;40.70;101685.16;5093741;28;20040;-78
2021/03/02 12:57:52;;;;;;;9.15;6.85;;;;;;;13.25;42.86;101663.06;5093856;28;20024;-78
2021/03/02 13:00:31;;;;;;;8.90;6.00;;;;;;;12.41;42.79;101666.44;5093288;28;20115;-77
2021/03/02 13:03:02;;;;;;;9.07;5.72;;;;;;;12.60;42.64;101671.38;5075434;28;20100;-77
2021/03/02 13:06:09;;;;;;;8.73;6.03;;;;;;;12.48;42.24;101674.03;5093350;28;20031;-79
2021/03/02 13:08:51;;;;;;;8.35;5.72;;;;;;;12.87;42.40;101663.50;5093568;28;20036;-78
2021/03/02 13:14:42;;;;;;;8.93;6.35;;;;;;;12.74;42.44;101621.06;5093314;28;20043;-77
2021/03/02 13:18:02;;;;;;;8.38;6.28;;;;;;;11.98;44.60;101659.13;5075170;28;20031;-77
2021/03/02 13:20:28;;;;;;;8.02;5.30;;;;;;;12.15;43.25;101641.16;5075395;28;20074;-77
2021/03/02 13:26:33;;;;;;;8.13;5.67;;;;;;;11.81;44.29;101658.38;5093463;28;20055;-77
2021/03/02 13:29:25;;;;;;;6.72;5.53;;;;;;;12.47;43.41;101648.56;5075214;28;20376;-77
2021/03/02 13:36:04;;;;;;;9.43;6.30;;;;;;;13.21;41.32;101640.97;5089892;28;20435;-78
2021/03/02 13:38:57;;;;;;;8.15;6.00;;;;;;;12.84;43.36;101644.78;5093421;28;20060;-78
2021/03/02 13:41:30;;;;;;;6.78;5.30;;;;;;;13.44;40.96;101616.00;5075307;28;20047;-77
2021/03/02 13:44:31;;;;;;;8.57;6.05;;;;;;;13.37;40.68;101641.66;5082033;28;20020;-78
2021/03/02 13:46:56;;;;;;;9.07;5.93;;;;;;;13.67;40.43;101608.00;5074727;28;20525;-77
2021/03/02 13:49:27;;;;;;;8.55;5.70;;;;;;;12.92;41.94;101632.78;5074361;28;20122;-77
2021/03/02 13:55:37;;;;;;;8.47;5.90;;;;;;;13.48;42.32;101634.69;5092716;28;20483;-77
2021/03/02 13:58:15;;;;;;;8.05;5.82;;;;;;;13.59;40.97;101627.72;5074422;28;20042;-79
2021/03/02 14:00:41;;;;;;;7.78;5.78;;;;;;;12.56;43.19;101628.91;5092598;28;20078;-78
2021/03/02 14:03:42;;;;;;;8.32;6.15;;;;;;;13.22;42.01;101619.69;5092474;28;20051;-77
2021/03/02 14:06:55;;;;;;;8.10;5.10;;;;;;;13.44;39.91;101621.13;5074478;28;20093;-78
2021/03/02 14:09:46;;;;;;;7.65;4.97;;;;;;;13.50;40.18;101612.53;5092408;28;20401;-78